This is the latest recevied weather packets stored in our database for station/object VA3JLF-1. If no packets are shown the sender has not sent any weather packets the latest 10 day(s).
| Time | Temp. | Humidity | Pressure | Rain* | Wind** | Luminosity | Snow |
|---|---|---|---|---|---|---|---|
| 1777580758 | 8.33° C | 85% | 1006.5 hPa | 0 mm | - | - | - |
| 1777580158 | 8.33° C | 83% | 1006.6 hPa | 0 mm | - | - | - |
| 1777579560 | 9.44° C | 82% | 1006.5 hPa | 0 mm | - | - | - |
| 1777578359 | 8.89° C | 82% | 1006.5 hPa | 0 mm | - | - | - |
| 1777577759 | 8.89° C | 82% | 1006.2 hPa | 0 mm | - | - | - |
| 1777577159 | 8.89° C | 81% | 1006.2 hPa | 0 mm | - | - | - |
| 1777576559 | 8.89° C | 82% | 1006.6 hPa | 0 mm | - | - | - |
| 1777575959 | 8.33° C | 82% | 1006.2 hPa | 0 mm | - | - | - |
| 1777574760 | 8.33° C | 82% | 1006.5 hPa | 0 mm | - | - | - |
| 1777574159 | 8.33° C | 81% | 1006.4 hPa | 0 mm | - | - | - |
| 1777573559 | 9.44° C | 81% | 1006.4 hPa | 0 mm | - | - | - |
| 1777572359 | 11.11° C | 76% | 1006.5 hPa | 0 mm | - | - | - |
| 1777571759 | 11.11° C | 76% | 1006.5 hPa | 0 mm | - | - | - |
| 1777570560 | 10° C | 78% | 1006.2 hPa | 0 mm | - | - | - |
| 1777569958 | 10° C | 80% | 1006 hPa | 0 mm | - | - | - |
| 1777569359 | 10° C | 77% | 1006.1 hPa | 0 mm | - | - | - |
| 1777566960 | 9.44° C | 81% | 1006.1 hPa | 0 mm | - | - | - |
| 1777565759 | 9.44° C | 81% | 1006.1 hPa | 0 mm | - | - | - |
| 1777565159 | 9.44° C | 80% | 1006.2 hPa | 0 mm | - | - | - |
| 1777564560 | 8.89° C | 80% | 1006 hPa | 0 mm | - | - | - |
| 1777563359 | 10° C | 79% | 1005.8 hPa | 0 mm | - | - | - |
| 1777562759 | 10.56° C | 75% | 1005.9 hPa | 0 mm | - | - | - |
| 1777560959 | 9.44° C | 83% | 1005.8 hPa | 0 mm | - | - | - |
| 1777559760 | 7.78° C | 85% | 1005.7 hPa | 0 mm | - | - | - |
| 1777559159 | 7.78° C | 85% | 1005.7 hPa | 0 mm | - | - | - |
* Rain latest hour (hover to see other rain measurements)
** Current wind speed in m/s (hover to see current wind gust speed)